Terminal Aerodrome Forecast
Issued by NWS

Home | Current Version | Previous Version | Text Only | Print | Product List | Glossary On
Versions: 1 2 3 4 5 6 7 8 9 10 11 12 13 14 15 16 17 18
000
FTUS43 KOAX 301100
TAFCDR
TAF
KCDR 301129Z 3012/0112 28030G40KT 5SM -RA BR SCT015 OVC020
     FM301500 27028G38KT P6SM VCSH BKN025 OVC050
     FM302000 28015G22KT P6SM VCSH SCT050 BKN070
     FM010200 25005KT P6SM BKN070 BKN200=

USA.gov is the U.S. government's official web portal to all federal, state and local government web resources and services.